Time;durP1;ratioP1;P1;durP2;ratioP2;P2;SDS_P1;SDS_P2;PMS_P1;PMS_P2;Temp;Humidity;BMP_temperature;BMP_pressure;BME280_temperature;BME280_humidity;BME280_pressure;Samples;Min_cycle;Max_cycle;Signal;HPM_P1;HPM_P2
2023/07/10 00:02:00;;;;;;;;;4.00;4.00;;;;;;;;5103038;27;45301;-74
2023/07/10 00:04:25;;;;;;;;;5.33;5.33;;;;;;;;5103305;27;45448;-74
2023/07/10 00:06:50;;;;;;;;;7.33;6.00;;;;;;;;5084736;27;46003;-74
2023/07/10 00:09:16;;;;;;;;;4.00;4.00;;;;;;;;5103257;27;46064;-74
2023/07/10 00:11:42;;;;;;;;;5.67;5.00;;;;;;;;5103053;27;45313;-73
2023/07/10 00:14:20;;;;;;;;;4.00;3.33;;;;;;;;5103287;27;45309;-74
2023/07/10 00:16:46;;;;;;;;;7.33;7.33;;;;;;;;5084467;27;47859;-73
2023/07/10 00:19:12;;;;;;;;;5.00;4.00;;;;;;;;5102720;27;46292;-73
2023/07/10 00:21:37;;;;;;;;;6.00;5.00;;;;;;;;5102860;27;45232;-74
2023/07/10 00:24:02;;;;;;;;;4.33;4.33;;;;;;;;5103093;27;45523;-73
2023/07/10 00:26:30;;;;;;;;;4.33;4.33;;;;;;;;5102927;27;45368;-73
2023/07/10 00:28:56;;;;;;;;;5.00;4.00;;;;;;;;5078589;28;47357;-74
2023/07/10 00:31:24;;;;;;;;;5.00;5.00;;;;;;;;5063827;28;45608;-74
2023/07/10 00:33:50;;;;;;;;;5.00;5.00;;;;;;;;5082152;28;45337;-73
2023/07/10 00:36:29;;;;;;;;;4.33;4.33;;;;;;;;5082027;28;45290;-74
2023/07/10 00:38:55;;;;;;;;;5.00;5.00;;;;;;;;5081920;28;45407;-74
2023/07/10 00:41:22;;;;;;;;;4.33;4.00;;;;;;;;5081918;28;45712;-74
2023/07/10 00:43:49;;;;;;;;;4.00;4.00;;;;;;;;5063573;28;45301;-73
2023/07/10 00:46:33;;;;;;;;;4.67;3.67;;;;;;;;5081797;28;45503;-74
2023/07/10 00:49:18;;;;;;;;;4.33;4.33;;;;;;;;5081614;28;45322;-74
2023/07/10 00:52:06;;;;;;;;;6.67;6.00;;;;;;;;5067314;28;45285;-74
2023/07/10 00:54:34;;;;;;;;;6.33;5.67;;;;;;;;5063313;28;45508;-73
2023/07/10 00:57:01;;;;;;;;;4.00;4.00;;;;;;;;5080682;28;45406;-73
2023/07/10 00:59:27;;;;;;;;;4.00;4.00;;;;;;;;5081761;28;45361;-73
2023/07/10 01:02:07;;;;;;;;;5.00;5.00;;;;;;;;5081539;28;45382;-74
2023/07/10 01:04:39;;;;;;;;;5.00;5.00;;;;;;;;5081865;28;45350;-73
2023/07/10 01:07:05;;;;;;;;;6.00;5.33;;;;;;;;5081465;28;45464;-73
2023/07/10 01:09:31;;;;;;;;;7.00;5.67;;;;;;;;5062720;28;47359;-74
2023/07/10 01:11:56;;;;;;;;;6.00;6.00;;;;;;;;5063409;28;45295;-73
2023/07/10 01:14:22;;;;;;;;;7.00;7.00;;;;;;;;5081488;28;45785;-73
2023/07/10 01:16:48;;;;;;;;;4.00;4.00;;;;;;;;5063116;28;45302;-73
2023/07/10 01:19:19;;;;;;;;;6.00;4.33;;;;;;;;5081416;28;45377;-73
2023/07/10 01:21:45;;;;;;;;;5.00;5.00;;;;;;;;5081261;28;45314;-73
2023/07/10 01:24:10;;;;;;;;;5.67;5.67;;;;;;;;5081670;28;45269;-73
2023/07/10 01:26:36;;;;;;;;;5.67;5.67;;;;;;;;5081365;28;45224;-73
2023/07/10 01:29:02;;;;;;;;;6.00;6.00;;;;;;;;5069170;27;47327;-73
2023/07/10 01:31:28;;;;;;;;;5.00;5.00;;;;;;;;5066624;28;45395;-73
2023/07/10 01:33:58;;;;;;;;;5.00;5.00;;;;;;;;5063175;28;45349;-74
2023/07/10 01:36:26;;;;;;;;;4.67;4.67;;;;;;;;5080988;28;45299;-73
2023/07/10 01:39:02;;;;;;;;;5.33;5.00;;;;;;;;5081032;28;46163;-74
2023/07/10 01:41:31;;;;;;;;;5.00;5.00;;;;;;;;5081245;28;45219;-74
2023/07/10 01:43:56;;;;;;;;;4.33;4.33;;;;;;;;5080998;28;45350;-74
2023/07/10 01:46:23;;;;;;;;;5.00;5.00;;;;;;;;5080765;28;45308;-73
2023/07/10 01:48:50;;;;;;;;;5.00;5.00;;;;;;;;5080850;28;45529;-73
2023/07/10 01:51:16;;;;;;;;;7.00;4.00;;;;;;;;5080952;28;45315;-74
2023/07/10 01:53:43;;;;;;;;;4.00;4.00;;;;;;;;5081102;28;45442;-74
2023/07/10 01:56:08;;;;;;;;;6.00;6.00;;;;;;;;5062499;28;46613;-74
2023/07/10 01:58:33;;;;;;;;;6.33;6.00;;;;;;;;5080784;28;45331;-73
2023/07/10 02:01:00;;;;;;;;;7.33;6.00;;;;;;;;5062627;28;45694;-74
2023/07/10 02:03:25;;;;;;;;;6.33;5.00;;;;;;;;5080844;28;45377;-74
2023/07/10 02:05:50;;;;;;;;;5.67;5.67;;;;;;;;5062216;28;46168;-73
2023/07/10 02:08:16;;;;;;;;;6.67;6.00;;;;;;;;5080642;28;45519;-74
2023/07/10 02:10:41;;;;;;;;;5.00;5.00;;;;;;;;5080870;28;45356;-74
2023/07/10 02:13:06;;;;;;;;;5.67;5.67;;;;;;;;5080832;28;45338;-74
2023/07/10 02:15:31;;;;;;;;;5.33;5.33;;;;;;;;5062312;28;45330;-73
2023/07/10 02:17:57;;;;;;;;;5.00;5.00;;;;;;;;5062161;28;48461;-73
2023/07/10 02:20:23;;;;;;;;;3.67;3.00;;;;;;;;5080555;28;45323;-73
2023/07/10 02:22:48;;;;;;;;;4.00;4.00;;;;;;;;5062506;28;45232;-73
2023/07/10 02:25:13;;;;;;;;;5.67;5.00;;;;;;;;5080493;28;45527;-73
2023/07/10 02:27:38;;;;;;;;;6.00;6.00;;;;;;;;5080497;28;45343;-73
2023/07/10 02:30:04;;;;;;;;;5.00;4.00;;;;;;;;5095400;27;45302;-73
2023/07/10 02:32:29;;;;;;;;;7.33;7.33;;;;;;;;5100993;27;45296;-74
2023/07/10 02:34:54;;;;;;;;;6.00;6.00;;;;;;;;5082420;27;47083;-74
2023/07/10 02:37:20;;;;;;;;;8.00;7.00;;;;;;;;5100712;27;45344;-73
2023/07/10 02:39:45;;;;;;;;;6.00;6.00;;;;;;;;5100863;27;45186;-73
2023/07/10 02:42:10;;;;;;;;;4.67;4.67;;;;;;;;5100650;27;45208;-74
2023/07/10 02:44:36;;;;;;;;;5.00;5.00;;;;;;;;5082268;27;47062;-74
2023/07/10 02:47:01;;;;;;;;;4.00;4.00;;;;;;;;5081753;27;47526;-73
2023/07/10 02:49:26;;;;;;;;;6.00;6.00;;;;;;;;5100735;27;45367;-74
2023/07/10 02:51:51;;;;;;;;;6.00;6.00;;;;;;;;5100630;27;45268;-73
2023/07/10 02:54:16;;;;;;;;;7.00;6.33;;;;;;;;5082104;27;47159;-74
2023/07/10 02:56:41;;;;;;;;;5.67;5.67;;;;;;;;5100324;27;45447;-73
2023/07/10 02:59:07;;;;;;;;;7.33;6.67;;;;;;;;5100490;27;45275;-74
2023/07/10 03:01:32;;;;;;;;;5.33;5.33;;;;;;;;5100711;27;45204;-73
2023/07/10 03:03:57;;;;;;;;;7.00;5.67;;;;;;;;5100239;27;45575;-74
2023/07/10 03:06:23;;;;;;;;;4.33;4.33;;;;;;;;5081995;27;47217;-73
2023/07/10 03:08:49;;;;;;;;;4.67;4.67;;;;;;;;5100341;27;45346;-74
2023/07/10 03:11:15;;;;;;;;;5.00;4.00;;;;;;;;5100572;27;45370;-74
2023/07/10 03:13:40;;;;;;;;;6.00;6.00;;;;;;;;5100300;27;45437;-73
2023/07/10 03:16:08;;;;;;;;;3.00;3.00;;;;;;;;5081602;27;47292;-73
2023/07/10 03:18:33;;;;;;;;;5.33;4.67;;;;;;;;5100086;27;45433;-74
2023/07/10 03:20:58;;;;;;;;;6.00;6.00;;;;;;;;5102336;27;45491;-74
2023/07/10 03:23:24;;;;;;;;;4.67;4.67;;;;;;;;5103902;27;45488;-73
2023/07/10 03:25:49;;;;;;;;;6.33;5.00;;;;;;;;5085245;27;47004;-73
2023/07/10 03:28:15;;;;;;;;;5.00;5.00;;;;;;;;5103779;27;45352;-73
2023/07/10 03:30:40;;;;;;;;;6.00;6.00;;;;;;;;5083552;27;45232;-73
2023/07/10 03:33:06;;;;;;;;;6.00;5.67;;;;;;;;5082962;28;45170;-73
2023/07/10 03:35:31;;;;;;;;;4.67;4.00;;;;;;;;5082961;28;45808;-73
2023/07/10 03:37:56;;;;;;;;;6.00;6.00;;;;;;;;5083167;28;45371;-73
2023/07/10 03:40:21;;;;;;;;;6.33;6.33;;;;;;;;5083252;28;45332;-73
2023/07/10 03:42:46;;;;;;;;;4.33;4.33;;;;;;;;5061167;28;45935;-73
2023/07/10 03:45:12;;;;;;;;;6.33;6.33;;;;;;;;5061283;28;48295;-73
2023/07/10 03:47:37;;;;;;;;;7.00;6.00;;;;;;;;5062708;28;45329;-73
2023/07/10 03:50:02;;;;;;;;;5.00;5.00;;;;;;;;5061617;28;45352;-73
2023/07/10 03:52:27;;;;;;;;;6.00;6.00;;;;;;;;5062517;28;45440;-73
2023/07/10 03:54:52;;;;;;;;;4.67;4.67;;;;;;;;5062453;28;46552;-73
2023/07/10 03:57:18;;;;;;;;;5.00;5.00;;;;;;;;5061127;28;45359;-73
2023/07/10 03:59:43;;;;;;;;;4.00;4.00;;;;;;;;5062752;28;45323;-73
2023/07/10 04:02:08;;;;;;;;;4.00;4.00;;;;;;;;5062299;28;45216;-73
2023/07/10 04:04:33;;;;;;;;;5.00;5.00;;;;;;;;5060947;28;48237;-73
2023/07/10 04:06:58;;;;;;;;;6.00;6.00;;;;;;;;5062451;28;45292;-73
2023/07/10 04:09:24;;;;;;;;;5.00;5.00;;;;;;;;5062509;28;45493;-73
2023/07/10 04:11:49;;;;;;;;;6.00;6.00;;;;;;;;5062337;28;45238;-73
2023/07/10 04:14:14;;;;;;;;;7.00;6.67;;;;;;;;5062310;28;45238;-73
2023/07/10 04:16:39;;;;;;;;;5.33;4.33;;;;;;;;5061924;28;45509;-73
2023/07/10 04:19:04;;;;;;;;;5.67;4.33;;;;;;;;5062492;28;45295;-73
2023/07/10 04:21:31;;;;;;;;;6.00;5.33;;;;;;;;5062115;28;45372;-73
2023/07/10 04:23:56;;;;;;;;;6.33;6.33;;;;;;;;5062103;28;46584;-73
2023/07/10 04:26:25;;;;;;;;;6.00;6.00;;;;;;;;5062135;28;45256;-73
2023/07/10 04:28:52;;;;;;;;;7.33;6.67;;;;;;;;5062064;28;45328;-73
2023/07/10 04:31:18;;;;;;;;;6.67;5.67;;;;;;;;5059803;28;47421;-73
2023/07/10 04:33:43;;;;;;;;;6.00;6.00;;;;;;;;5059837;28;48568;-73
2023/07/10 04:36:08;;;;;;;;;6.00;6.00;;;;;;;;5061679;28;45228;-73
2023/07/10 04:38:34;;;;;;;;;7.00;6.00;;;;;;;;5062169;28;45275;-73
2023/07/10 04:41:00;;;;;;;;;6.00;5.00;;;;;;;;5061881;28;45331;-73
2023/07/10 04:43:27;;;;;;;;;6.33;6.33;;;;;;;;5084874;27;46286;-73
2023/07/10 04:45:53;;;;;;;;;5.00;5.00;;;;;;;;5083911;27;45249;-73
2023/07/10 04:48:18;;;;;;;;;7.67;7.00;;;;;;;;5102498;27;45246;-73
2023/07/10 04:50:45;;;;;;;;;8.67;8.67;;;;;;;;5102247;27;45321;-73
2023/07/10 04:53:10;;;;;;;;;8.67;7.67;;;;;;;;5102261;27;45563;-73
2023/07/10 04:55:36;;;;;;;;;9.33;9.33;;;;;;;;5083821;27;45300;-73
2023/07/10 04:58:01;;;;;;;;;7.00;6.33;;;;;;;;5102394;27;45572;-73
2023/07/10 05:00:26;;;;;;;;;9.67;7.00;;;;;;;;5096114;27;45256;-73
2023/07/10 05:02:51;;;;;;;;;10.33;9.00;;;;;;;;5077246;28;45610;-73
2023/07/10 05:05:16;;;;;;;;;7.00;7.00;;;;;;;;5081227;28;45252;-73
2023/07/10 05:07:42;;;;;;;;;9.00;9.00;;;;;;;;5063479;28;45365;-73
2023/07/10 05:10:07;;;;;;;;;5.67;5.67;;;;;;;;5063311;28;46176;-73
2023/07/10 05:12:32;;;;;;;;;9.67;9.67;;;;;;;;5080427;27;45761;-74
2023/07/10 05:14:57;;;;;;;;;8.67;8.33;;;;;;;;5080828;28;45340;-73
2023/07/10 05:17:23;;;;;;;;;7.00;7.00;;;;;;;;5075633;27;45287;-73
2023/07/10 05:19:48;;;;;;;;;8.67;7.00;;;;;;;;5079974;28;45452;-74
2023/07/10 05:22:13;;;;;;;;;7.67;7.67;;;;;;;;5063104;28;47208;-74
2023/07/10 05:24:38;;;;;;;;;10.67;9.00;;;;;;;;5081822;28;45260;-74
2023/07/10 05:27:04;;;;;;;;;10.33;9.00;;;;;;;;5081800;28;45263;-75
2023/07/10 05:29:29;;;;;;;;;9.33;8.00;;;;;;;;5091445;27;45259;-75
2023/07/10 05:31:55;;;;;;;;;9.67;8.00;;;;;;;;5110454;27;46188;-76
2023/07/10 05:34:22;;;;;;;;;11.33;9.33;;;;;;;;5085988;27;45750;-75
2023/07/10 05:36:47;;;;;;;;;10.67;8.67;;;;;;;;5101745;27;45408;-75
2023/07/10 05:39:13;;;;;;;;;11.33;10.67;;;;;;;;5083777;27;45510;-74
2023/07/10 05:41:38;;;;;;;;;11.67;11.00;;;;;;;;5105035;27;45244;-74
2023/07/10 05:44:06;;;;;;;;;9.00;9.00;;;;;;;;5102666;27;45361;-75
2023/07/10 05:46:31;;;;;;;;;10.67;10.00;;;;;;;;5103022;27;45284;-74
2023/07/10 05:48:56;;;;;;;;;5.00;5.00;;;;;;;;5101646;27;45328;-74
2023/07/10 05:51:22;;;;;;;;;10.33;10.00;;;;;;;;5101544;27;45443;-75
2023/07/10 05:53:47;;;;;;;;;10.33;9.00;;;;;;;;5101433;27;45311;-74
2023/07/10 05:56:13;;;;;;;;;8.33;8.33;;;;;;;;5101534;27;45264;-74
2023/07/10 05:58:39;;;;;;;;;11.33;11.33;;;;;;;;5082973;27;45785;-74
2023/07/10 06:01:04;;;;;;;;;12.33;11.00;;;;;;;;5101162;27;46336;-74
2023/07/10 06:03:32;;;;;;;;;12.00;11.67;;;;;;;;5100959;27;45448;-74
2023/07/10 06:05:58;;;;;;;;;11.00;11.00;;;;;;;;5101170;27;45351;-74
2023/07/10 06:08:25;;;;;;;;;12.33;12.33;;;;;;;;5082693;27;45915;-74
2023/07/10 06:10:50;;;;;;;;;13.33;12.00;;;;;;;;5101034;27;45483;-74
2023/07/10 06:13:15;;;;;;;;;13.00;11.67;;;;;;;;5089874;27;45331;-75
2023/07/10 06:15:45;;;;;;;;;12.67;11.67;;;;;;;;5081164;28;45486;-75
2023/07/10 06:18:10;;;;;;;;;14.33;13.00;;;;;;;;5084449;27;45472;-75
2023/07/10 06:20:35;;;;;;;;;15.00;13.67;;;;;;;;5078778;28;45462;-75
2023/07/10 06:23:00;;;;;;;;;14.33;14.00;;;;;;;;5065129;28;45339;-75
2023/07/10 06:25:25;;;;;;;;;10.00;10.00;;;;;;;;5082680;28;45294;-75
2023/07/10 06:27:51;;;;;;;;;12.00;12.00;;;;;;;;5082678;28;45236;-75
2023/07/10 06:30:16;;;;;;;;;13.67;13.67;;;;;;;;5102805;27;45303;-74
2023/07/10 06:32:41;;;;;;;;;11.67;10.33;;;;;;;;5111383;27;45308;-76
2023/07/10 06:35:06;;;;;;;;;11.67;11.00;;;;;;;;5104651;27;45376;-75
2023/07/10 06:37:32;;;;;;;;;13.00;11.33;;;;;;;;5082623;27;47367;-75
2023/07/10 06:40:06;;;;;;;;;12.00;10.67;;;;;;;;5100915;27;45484;-74
2023/07/10 06:42:31;;;;;;;;;10.33;10.00;;;;;;;;5100671;27;45267;-73
2023/07/10 06:44:56;;;;;;;;;13.33;13.33;;;;;;;;5100720;27;45488;-74
2023/07/10 06:47:21;;;;;;;;;11.33;11.33;;;;;;;;5101189;27;45583;-74
2023/07/10 06:49:47;;;;;;;;;9.00;9.00;;;;;;;;5103358;27;45340;-74
2023/07/10 06:52:12;;;;;;;;;9.67;9.00;;;;;;;;5085464;27;45892;-73
2023/07/10 06:54:38;;;;;;;;;9.00;9.00;;;;;;;;5081833;27;45390;-73
2023/07/10 06:57:03;;;;;;;;;11.00;11.00;;;;;;;;5100548;27;45634;-74
2023/07/10 06:59:28;;;;;;;;;11.33;10.67;;;;;;;;5082127;27;46935;-73
2023/07/10 07:01:54;;;;;;;;;12.00;10.67;;;;;;;;5100790;27;45361;-73
2023/07/10 07:04:19;;;;;;;;;11.33;11.00;;;;;;;;5101744;27;45288;-74
2023/07/10 07:06:44;;;;;;;;;9.67;9.67;;;;;;;;5100645;27;45314;-73
2023/07/10 07:09:09;;;;;;;;;11.00;11.00;;;;;;;;5100482;27;46449;-73
2023/07/10 07:11:35;;;;;;;;;12.67;12.00;;;;;;;;5100294;27;45156;-73
2023/07/10 07:14:00;;;;;;;;;9.67;9.67;;;;;;;;5100266;27;45373;-72
2023/07/10 07:16:26;;;;;;;;;13.00;11.00;;;;;;;;5100040;27;45777;-73
2023/07/10 07:18:51;;;;;;;;;6.00;3.00;;;;;;;;5084467;27;45409;-73
2023/07/10 07:21:16;;;;;;;;;11.00;9.33;;;;;;;;5079886;28;45342;-72
2023/07/10 07:23:41;;;;;;;;;11.33;10.00;;;;;;;;5078544;28;45280;-73
2023/07/10 07:26:07;;;;;;;;;7.33;7.33;;;;;;;;5074662;28;45358;-73
2023/07/10 07:28:32;;;;;;;;;8.00;8.00;;;;;;;;5062557;27;46604;-73
2023/07/10 07:31:01;;;;;;;;;8.50;8.00;;;;;;;;5089346;27;45445;-73
2023/07/10 07:33:26;;;;;;;;;9.67;9.67;;;;;;;;5075612;28;45409;-72
2023/07/10 07:35:52;;;;;;;;;9.67;9.33;;;;;;;;5075982;27;45301;-73
2023/07/10 07:38:17;;;;;;;;;12.33;12.33;;;;;;;;5076046;28;45327;-74
2023/07/10 07:40:42;;;;;;;;;10.00;10.00;;;;;;;;5058902;28;45228;-73
2023/07/10 07:43:08;;;;;;;;;10.67;10.67;;;;;;;;5041676;28;45327;-74
2023/07/10 07:45:33;;;;;;;;;10.00;9.00;;;;;;;;5065839;27;45484;-73
2023/07/10 07:47:58;;;;;;;;;8.33;7.00;;;;;;;;5060940;28;48248;-73
2023/07/10 07:50:23;;;;;;;;;7.67;7.00;;;;;;;;5077353;28;45525;-74
2023/07/10 07:52:48;;;;;;;;;8.67;8.67;;;;;;;;5083789;28;45581;-73
2023/07/10 07:55:14;;;;;;;;;6.67;6.67;;;;;;;;5076732;28;45393;-76
2023/07/10 07:57:39;;;;;;;;;8.25;7.00;;;;;;;;5076893;28;45373;-75
2023/07/10 08:00:06;;;;;;;;;5.00;5.00;;;;;;;;5076902;28;45585;-75
2023/07/10 08:02:31;;;;;;;;;7.50;7.50;;;;;;;;5077095;28;45292;-74
2023/07/10 08:04:58;;;;;;;;;5.00;5.00;;;;;;;;5078193;28;45334;-74
2023/07/10 08:07:23;;;;;;;;;5.50;5.50;;;;;;;;5063154;28;47466;-74
2023/07/10 08:09:48;;;;;;;;;6.25;6.25;;;;;;;;5081161;27;45260;-74
2023/07/10 08:12:14;;;;;;;;;7.00;7.00;;;;;;;;5059803;28;45280;-73
2023/07/10 08:14:39;;;;;;;;;5.25;4.00;;;;;;;;5077853;27;45256;-74
2023/07/10 08:17:04;;;;;;;;;3.75;3.75;;;;;;;;5102183;27;46294;-74
2023/07/10 08:19:29;;;;;;;;;5.33;5.33;;;;;;;;5088384;27;45510;-74
2023/07/10 08:21:57;;;;;;;;;4.00;4.00;;;;;;;;5081348;27;45432;-75
2023/07/10 08:24:22;;;;;;;;;7.00;7.00;;;;;;;;5082112;28;45955;-74
2023/07/10 08:26:47;;;;;;;;;6.00;6.00;;;;;;;;5081879;27;45866;-73
2023/07/10 08:29:25;;;;;;;;;6.00;6.00;;;;;;;;5089668;27;45252;-74
2023/07/10 08:31:57;;;;;;;;;5.00;4.00;;;;;;;;5080218;27;46796;-74
2023/07/10 08:34:25;;;;;;;;;5.00;5.00;;;;;;;;5078229;28;46129;-74
2023/07/10 08:36:52;;;;;;;;;4.25;3.00;;;;;;;;5081320;28;45404;-74
2023/07/10 08:39:17;;;;;;;;;1.25;1.00;;;;;;;;5081801;28;45329;-74
2023/07/10 08:41:42;;;;;;;;;5.00;2.75;;;;;;;;5081227;27;45428;-73
2023/07/10 08:44:11;;;;;;;;;4.25;4.00;;;;;;;;5081933;28;45333;-74
2023/07/10 08:46:37;;;;;;;;;4.75;3.00;;;;;;;;5063090;28;47243;-74
2023/07/10 08:49:02;;;;;;;;;2.75;2.75;;;;;;;;5080410;28;45268;-74
2023/07/10 08:51:37;;;;;;;;;2.00;2.00;;;;;;;;5075283;27;45439;-75
2023/07/10 08:54:04;;;;;;;;;3.75;2.50;;;;;;;;5062550;28;46139;-74
2023/07/10 08:56:42;;;;;;;;;4.25;3.25;;;;;;;;5081274;27;46165;-74
2023/07/10 08:59:38;;;;;;;;;2.75;2.75;;;;;;;;5059892;28;45967;-75
2023/07/10 09:02:03;;;;;;;;;3.00;3.00;;;;;;;;5067734;28;45358;-77
2023/07/10 09:04:29;;;;;;;;;2.25;2.25;;;;;;;;5082024;28;45323;-75
2023/07/10 09:06:59;;;;;;;;;3.75;2.75;;;;;;;;5081384;27;45556;-74
2023/07/10 09:09:43;;;;;;;;;3.25;3.25;;;;;;;;5080840;28;45299;-74
2023/07/10 09:12:12;;;;;;;;;3.50;2.50;;;;;;;;5061140;28;45357;-73
2023/07/10 09:14:43;;;;;;;;;4.25;3.75;;;;;;;;5081674;28;45333;-75
2023/07/10 09:17:32;;;;;;;;;3.50;3.50;;;;;;;;5062150;27;48357;-74
2023/07/10 09:19:59;;;;;;;;;2.00;2.00;;;;;;;;5080229;27;45336;-74
2023/07/10 09:22:25;;;;;;;;;4.50;3.00;;;;;;;;5080677;28;45343;-75
2023/07/10 09:24:50;;;;;;;;;2.50;2.50;;;;;;;;5080951;28;45551;-74
2023/07/10 09:27:15;;;;;;;;;2.00;2.00;;;;;;;;5087734;27;46314;-73
2023/07/10 09:29:42;;;;;;;;;2.00;2.00;;;;;;;;5092450;27;45344;-73
2023/07/10 09:32:07;;;;;;;;;1.00;1.00;;;;;;;;5100794;27;45312;-74
2023/07/10 09:34:33;;;;;;;;;3.00;3.00;;;;;;;;5082869;27;47196;-74
2023/07/10 09:36:59;;;;;;;;;3.00;2.50;;;;;;;;5101296;27;46056;-74
2023/07/10 09:39:27;;;;;;;;;3.00;3.00;;;;;;;;5101546;27;45361;-75
2023/07/10 09:41:52;;;;;;;;;4.00;4.00;;;;;;;;5101263;27;45381;-75
2023/07/10 09:44:21;;;;;;;;;3.00;3.00;;;;;;;;5101134;27;45438;-75
2023/07/10 09:46:47;;;;;;;;;1.25;1.25;;;;;;;;5100994;27;46191;-74
2023/07/10 09:49:15;;;;;;;;;5.00;3.50;;;;;;;;5082982;27;45330;-74
2023/07/10 09:51:56;;;;;;;;;4.00;3.25;;;;;;;;5101529;27;45314;-74
2023/07/10 09:54:22;;;;;;;;;2.00;2.00;;;;;;;;5101382;27;45455;-75
2023/07/10 09:56:48;;;;;;;;;2.00;2.00;;;;;;;;5082887;27;45842;-74
2023/07/10 09:59:13;;;;;;;;;4.25;4.00;;;;;;;;5082913;27;45297;-74
2023/07/10 10:01:38;;;;;;;;;3.20;1.20;;;;;;;;5088838;27;45401;-74
2023/07/10 10:04:03;;;;;;;;;4.25;3.00;;;;;;;;5086852;27;45300;-74
2023/07/10 10:06:30;;;;;;;;;2.00;2.00;;;;;;;;5078503;28;46012;-74
2023/07/10 10:08:55;;;;;;;;;2.00;2.00;;;;;;;;5061489;28;45329;-77
2023/07/10 10:11:39;;;;;;;;;3.75;3.75;;;;;;;;5061883;28;45334;-75
2023/07/10 10:14:09;;;;;;;;;2.50;1.00;;;;;;;;5079120;27;45482;-76
2023/07/10 10:16:44;;;;;;;;;3.00;3.00;;;;;;;;5060568;28;48184;-75
2023/07/10 10:19:22;;;;;;;;;1.00;1.00;;;;;;;;5077308;27;45240;-76
2023/07/10 10:21:47;;;;;;;;;3.00;3.00;;;;;;;;5079306;28;45414;-75
2023/07/10 10:24:13;;;;;;;;;2.00;2.00;;;;;;;;5080792;28;45354;-74
2023/07/10 10:26:50;;;;;;;;;2.00;2.00;;;;;;;;5062691;28;47030;-76
2023/07/10 10:29:26;;;;;;;;;3.25;2.00;;;;;;;;5088520;27;45366;-75
2023/07/10 10:32:01;;;;;;;;;3.50;3.50;;;;;;;;5082434;27;45824;-74
2023/07/10 10:34:45;;;;;;;;;3.00;3.00;;;;;;;;5100858;27;45341;-75
2023/07/10 10:37:22;;;;;;;;;3.75;3.75;;;;;;;;5087512;27;45328;-75
2023/07/10 10:39:53;;;;;;;;;5.75;5.75;;;;;;;;5080369;28;45335;-76
2023/07/10 10:42:31;;;;;;;;;4.75;4.75;;;;;;;;5061953;28;46522;-75
2023/07/10 10:45:10;;;;;;;;;2.00;2.00;;;;;;;;5080082;28;45324;-75
2023/07/10 10:47:55;;;;;;;;;2.25;2.25;;;;;;;;5076201;28;46153;-75
2023/07/10 10:50:30;;;;;;;;;3.75;3.75;;;;;;;;5059956;28;45381;-75
2023/07/10 10:53:15;;;;;;;;;2.25;2.25;;;;;;;;5080430;28;45324;-75
2023/07/10 10:55:40;;;;;;;;;1.50;1.25;;;;;;;;5059983;27;45657;-77
2023/07/10 10:58:15;;;;;;;;;2.50;2.50;;;;;;;;5077775;28;46066;-76
2023/07/10 11:00:57;;;;;;;;;2.00;2.00;;;;;;;;5061488;28;45619;-76
2023/07/10 11:03:28;;;;;;;;;2.00;2.00;;;;;;;;5077505;28;45367;-77
2023/07/10 11:05:56;;;;;;;;;2.75;1.75;;;;;;;;5068184;27;45571;-77
2023/07/10 11:08:23;;;;;;;;;1.25;1.25;;;;;;;;5068923;28;46396;-76
2023/07/10 11:10:49;;;;;;;;;2.50;2.50;;;;;;;;5076408;27;45412;-77
2023/07/10 11:13:34;;;;;;;;;3.00;2.00;;;;;;;;5061362;28;45363;-75
2023/07/10 11:16:03;;;;;;;;;2.50;2.00;;;;;;;;5060708;28;47317;-75
2023/07/10 11:18:29;;;;;;;;;0.50;0.50;;;;;;;;5076688;28;45415;-76
2023/07/10 11:20:55;;;;;;;;;2.75;2.00;;;;;;;;5079459;27;45419;-76
2023/07/10 11:23:49;;;;;;;;;2.00;2.00;;;;;;;;5079621;28;45358;-76
2023/07/10 11:26:17;;;;;;;;;13.00;10.33;;;;;;;;5058253;28;46569;-78
2023/07/10 11:28:48;;;;;;;;;2.25;2.25;;;;;;;;5082430;27;45362;-78
2023/07/10 11:31:16;;;;;;;;;2.75;2.75;;;;;;;;5081294;27;46586;-77
2023/07/10 11:33:42;;;;;;;;;1.50;1.50;;;;;;;;5059501;28;45465;-75
2023/07/10 11:36:15;;;;;;;;;0.00;0.00;;;;;;;;5078615;28;45300;-77
2023/07/10 11:39:04;;;;;;;;;3.33;2.67;;;;;;;;5058647;28;47256;-74
2023/07/10 11:41:30;;;;;;;;;2.50;2.00;;;;;;;;5032654;28;45509;-76
2023/07/10 11:44:22;;;;;;;;;2.00;1.00;;;;;;;;5062828;28;45331;-77
2023/07/10 11:46:55;;;;;;;;;1.75;1.75;;;;;;;;5050668;28;45458;-76
2023/07/10 11:49:20;;;;;;;;;2.25;2.25;;;;;;;;5062708;28;45534;-77
2023/07/10 11:52:05;;;;;;;;;1.00;1.00;;;;;;;;5044454;28;45338;-76
2023/07/10 11:54:33;;;;;;;;;2.25;2.25;;;;;;;;5062617;28;45273;-77
2023/07/10 11:57:08;;;;;;;;;4.00;2.00;;;;;;;;5044217;28;47124;-76
2023/07/10 11:59:34;;;;;;;;;2.00;2.00;;;;;;;;5062493;28;46340;-75
2023/07/10 12:01:59;;;;;;;;;2.00;2.00;;;;;;;;5062548;28;45215;-76
2023/07/10 12:04:25;;;;;;;;;2.00;2.00;;;;;;;;5061590;28;45413;-77
2023/07/10 12:06:50;;;;;;;;;1.00;1.00;;;;;;;;5078671;28;45498;-76
2023/07/10 12:09:15;;;;;;;;;2.25;2.25;;;;;;;;5079213;27;45491;-75
2023/07/10 12:11:41;;;;;;;;;2.00;1.00;;;;;;;;5078555;28;45299;-77
2023/07/10 12:14:11;;;;;;;;;3.50;2.00;;;;;;;;5051720;28;45415;-76
2023/07/10 12:16:56;;;;;;;;;2.00;1.00;;;;;;;;5078916;28;45348;-75
2023/07/10 12:19:35;;;;;;;;;3.50;1.50;;;;;;;;5060221;28;48694;-76
2023/07/10 12:22:02;;;;;;;;;1.00;1.00;;;;;;;;5061647;28;45399;-77
2023/07/10 12:24:27;;;;;;;;;1.75;1.75;;;;;;;;5061946;28;45397;-77
2023/07/10 12:26:52;;;;;;;;;4.00;3.00;;;;;;;;5043412;28;47160;-77
2023/07/10 12:29:18;;;;;;;;;3.00;3.00;;;;;;;;5078594;27;45282;-78
2023/07/10 12:31:44;;;;;;;;;2.50;0.50;;;;;;;;5102615;27;45448;-78
2023/07/10 12:34:30;;;;;;;;;2.00;1.75;;;;;;;;5084253;27;45386;-77
2023/07/10 12:36:58;;;;;;;;;3.00;2.50;;;;;;;;5101747;27;45288;-78
2023/07/10 12:39:23;;;;;;;;;2.00;2.00;;;;;;;;5102390;27;45895;-78
2023/07/10 12:41:51;;;;;;;;;2.00;2.00;;;;;;;;5102592;27;45304;-78
2023/07/10 12:44:24;;;;;;;;;1.00;1.00;;;;;;;;5102975;27;45326;-75
2023/07/10 12:46:57;;;;;;;;;0.75;0.75;;;;;;;;5081933;28;46196;-77
2023/07/10 12:49:28;;;;;;;;;2.75;2.75;;;;;;;;5081971;28;45233;-76
2023/07/10 12:51:53;;;;;;;;;2.25;2.00;;;;;;;;5082641;28;45351;-76
2023/07/10 12:54:23;;;;;;;;;1.75;1.75;;;;;;;;5080454;28;45369;-76
2023/07/10 12:56:50;;;;;;;;;1.50;1.50;;;;;;;;5082231;28;45500;-75
2023/07/10 12:59:23;;;;;;;;;2.50;1.75;;;;;;;;5082367;28;46506;-75
2023/07/10 13:01:49;;;;;;;;;1.75;1.75;;;;;;;;5081650;28;45377;-75
2023/07/10 13:04:20;;;;;;;;;1.50;1.50;;;;;;;;5063518;28;45300;-75
2023/07/10 13:06:45;;;;;;;;;1.00;0.75;;;;;;;;5079329;28;45250;-75
2023/07/10 13:09:17;;;;;;;;;1.75;1.75;;;;;;;;5062594;28;47401;-75
2023/07/10 13:11:43;;;;;;;;;0.67;0.67;;;;;;;;5080918;28;45406;-75
2023/07/10 13:14:21;;;;;;;;;3.00;1.75;;;;;;;;5063334;28;45369;-75
2023/07/10 13:16:47;;;;;;;;;1.00;1.00;;;;;;;;5062026;28;45979;-75
2023/07/10 13:19:12;;;;;;;;;1.50;1.50;;;;;;;;5081592;28;45227;-76
2023/07/10 13:21:37;;;;;;;;;2.00;1.00;;;;;;;;5063410;28;45284;-74
2023/07/10 13:24:03;;;;;;;;;2.00;2.00;;;;;;;;5081811;28;45441;-75
2023/07/10 13:26:28;;;;;;;;;1.75;1.00;;;;;;;;5081481;28;45252;-74
2023/07/10 13:28:55;;;;;;;;;1.25;1.25;;;;;;;;5086440;27;45300;-75
2023/07/10 13:31:24;;;;;;;;;2.00;2.00;;;;;;;;5101813;27;45368;-74
2023/07/10 13:33:49;;;;;;;;;0.00;0.00;;;;;;;;5083568;27;45411;-74
2023/07/10 13:36:16;;;;;;;;;1.00;1.00;;;;;;;;5101614;27;45382;-75
2023/07/10 13:38:41;;;;;;;;;0.25;0.25;;;;;;;;5101836;27;45381;-74
2023/07/10 13:41:07;;;;;;;;;4.00;2.25;;;;;;;;5083438;27;45807;-75
2023/07/10 13:43:32;;;;;;;;;2.00;2.00;;;;;;;;5101655;27;45272;-75
2023/07/10 13:45:59;;;;;;;;;3.50;2.50;;;;;;;;5083013;27;46029;-75
2023/07/10 13:48:25;;;;;;;;;2.50;1.75;;;;;;;;5101344;27;45223;-75
2023/07/10 13:50:50;;;;;;;;;1.25;1.00;;;;;;;;5101318;27;45384;-75
2023/07/10 13:53:17;;;;;;;;;1.00;1.00;;;;;;;;5083395;27;45289;-75
2023/07/10 13:55:43;;;;;;;;;2.00;2.00;;;;;;;;5086342;27;45533;-75
2023/07/10 13:58:18;;;;;;;;;0.00;0.00;;;;;;;;5080934;28;46208;-74
2023/07/10 14:00:44;;;;;;;;;1.00;1.00;;;;;;;;5057613;28;45799;-75
2023/07/10 14:03:10;;;;;;;;;1.25;1.00;;;;;;;;5080361;28;45434;-75
2023/07/10 14:05:35;;;;;;;;;0.00;0.00;;;;;;;;5080379;28;45338;-74
2023/07/10 14:08:01;;;;;;;;;1.00;1.00;;;;;;;;5080709;28;46022;-74
2023/07/10 14:10:26;;;;;;;;;1.50;0.75;;;;;;;;5080849;28;45270;-75
2023/07/10 14:12:51;;;;;;;;;1.00;1.00;;;;;;;;5080931;28;45314;-76
2023/07/10 14:15:17;;;;;;;;;1.50;1.00;;;;;;;;5075500;28;45497;-75
2023/07/10 14:17:42;;;;;;;;;1.00;1.00;;;;;;;;5080362;28;46658;-74
2023/07/10 14:20:14;;;;;;;;;0.25;0.25;;;;;;;;5080626;28;45316;-75
2023/07/10 14:22:39;;;;;;;;;1.50;1.50;;;;;;;;5075475;28;45353;-75
2023/07/10 14:25:04;;;;;;;;;1.75;1.00;;;;;;;;5058753;27;46416;-75
2023/07/10 14:27:29;;;;;;;;;1.00;1.00;;;;;;;;5078383;28;45457;-75
2023/07/10 14:29:56;;;;;;;;;0.00;0.00;;;;;;;;5080930;27;45354;-74
2023/07/10 14:32:22;;;;;;;;;3.00;1.50;;;;;;;;5059829;28;45469;-75
2023/07/10 14:34:47;;;;;;;;;2.50;1.25;;;;;;;;5073454;27;45544;-74
2023/07/10 14:37:14;;;;;;;;;1.00;1.00;;;;;;;;5079960;28;45354;-74
2023/07/10 14:39:39;;;;;;;;;2.50;1.50;;;;;;;;5079914;27;45316;-75
2023/07/10 14:42:10;;;;;;;;;1.00;1.00;;;;;;;;5080039;28;45226;-75
2023/07/10 14:44:35;;;;;;;;;0.50;0.50;;;;;;;;5078230;27;45460;-75